sensor_id;sensor_type;location;lat;lon;timestamp;temperature;humidity
4461;DHT22;2243;48.812;9.232;2023-07-29T00:00:29;18.70;99.90
4461;DHT22;2243;48.812;9.232;2023-07-29T00:03:00;18.70;99.90
4461;DHT22;2243;48.812;9.232;2023-07-29T00:05:31;18.60;99.90
4461;DHT22;2243;48.812;9.232;2023-07-29T00:08:02;18.50;99.90
4461;DHT22;2243;48.812;9.232;2023-07-29T00:10:36;18.50;99.90
4461;DHT22;2243;48.812;9.232;2023-07-29T00:13:07;18.50;99.90
4461;DHT22;2243;48.812;9.232;2023-07-29T00:15:38;18.50;99.90
4461;DHT22;2243;48.812;9.232;2023-07-29T00:18:09;18.60;99.90
4461;DHT22;2243;48.812;9.232;2023-07-29T00:20:40;18.50;99.90
4461;DHT22;2243;48.812;9.232;2023-07-29T00:23:11;18.40;99.90
4461;DHT22;2243;48.812;9.232;2023-07-29T00:25:42;18.40;99.90
4461;DHT22;2243;48.812;9.232;2023-07-29T00:28:13;18.40;99.90
4461;DHT22;2243;48.812;9.232;2023-07-29T00:30:44;18.40;99.90
4461;DHT22;2243;48.812;9.232;2023-07-29T00:33:15;18.50;99.90
4461;DHT22;2243;48.812;9.232;2023-07-29T00:35:46;18.40;99.90
4461;DHT22;2243;48.812;9.232;2023-07-29T00:38:17;18.40;99.90
4461;DHT22;2243;48.812;9.232;2023-07-29T00:40:48;18.40;99.90
4461;DHT22;2243;48.812;9.232;2023-07-29T00:43:19;18.40;99.90
4461;DHT22;2243;48.812;9.232;2023-07-29T00:45:50;18.40;99.90
4461;DHT22;2243;48.812;9.232;2023-07-29T00:48:21;18.40;99.90
4461;DHT22;2243;48.812;9.232;2023-07-29T00:50:53;18.40;99.90
4461;DHT22;2243;48.812;9.232;2023-07-29T00:53:24;18.50;99.90
4461;DHT22;2243;48.812;9.232;2023-07-29T00:55:55;18.50;99.90
4461;DHT22;2243;48.812;9.232;2023-07-29T00:58:26;18.50;99.90
4461;DHT22;2243;48.812;9.232;2023-07-29T01:00:57;18.50;99.90
4461;DHT22;2243;48.812;9.232;2023-07-29T01:03:28;18.50;99.90
4461;DHT22;2243;48.812;9.232;2023-07-29T01:06:10;18.50;99.90
4461;DHT22;2243;48.812;9.232;2023-07-29T01:11:41;18.50;99.90
4461;DHT22;2243;48.812;9.232;2023-07-29T01:14:36;18.50;99.90
4461;DHT22;2243;48.812;9.232;2023-07-29T01:17:15;18.50;99.90
4461;DHT22;2243;48.812;9.232;2023-07-29T01:20:09;18.50;99.90
4461;DHT22;2243;48.812;9.232;2023-07-29T01:22:45;18.50;99.90
4461;DHT22;2243;48.812;9.232;2023-07-29T01:25:16;18.50;99.90
4461;DHT22;2243;48.812;9.232;2023-07-29T01:27:49;18.50;99.90
4461;DHT22;2243;48.812;9.232;2023-07-29T01:30:30;18.60;99.90
4461;DHT22;2243;48.812;9.232;2023-07-29T01:33:30;18.50;99.90
4461;DHT22;2243;48.812;9.232;2023-07-29T01:36:13;18.40;99.90
4461;DHT22;2243;48.812;9.232;2023-07-29T01:38:48;18.50;99.90
4461;DHT22;2243;48.812;9.232;2023-07-29T01:41:20;18.50;99.90
4461;DHT22;2243;48.812;9.232;2023-07-29T01:43:52;18.50;99.90
4461;DHT22;2243;48.812;9.232;2023-07-29T01:46:23;18.30;99.90
4461;DHT22;2243;48.812;9.232;2023-07-29T01:48:54;18.40;99.90
4461;DHT22;2243;48.812;9.232;2023-07-29T01:51:25;18.50;99.90
4461;DHT22;2243;48.812;9.232;2023-07-29T01:53:56;18.50;99.90
4461;DHT22;2243;48.812;9.232;2023-07-29T01:56:30;18.50;99.90
4461;DHT22;2243;48.812;9.232;2023-07-29T01:59:01;18.40;99.90
4461;DHT22;2243;48.812;9.232;2023-07-29T02:01:33;18.60;99.90
4461;DHT22;2243;48.812;9.232;2023-07-29T02:04:04;18.60;99.90
4461;DHT22;2243;48.812;9.232;2023-07-29T02:06:35;18.50;99.90
4461;DHT22;2243;48.812;9.232;2023-07-29T02:09:06;18.60;99.90
4461;DHT22;2243;48.812;9.232;2023-07-29T02:11:37;18.60;99.90
4461;DHT22;2243;48.812;9.232;2023-07-29T02:14:08;18.50;99.90
4461;DHT22;2243;48.812;9.232;2023-07-29T02:16:39;18.50;99.90
4461;DHT22;2243;48.812;9.232;2023-07-29T02:19:11;18.50;99.90
4461;DHT22;2243;48.812;9.232;2023-07-29T02:21:42;18.60;99.90
4461;DHT22;2243;48.812;9.232;2023-07-29T02:24:17;18.70;99.90
4461;DHT22;2243;48.812;9.232;2023-07-29T02:26:48;18.60;99.90
4461;DHT22;2243;48.812;9.232;2023-07-29T02:29:19;18.60;99.90
4461;DHT22;2243;48.812;9.232;2023-07-29T02:31:50;18.50;99.90
4461;DHT22;2243;48.812;9.232;2023-07-29T02:34:21;18.50;99.90
4461;DHT22;2243;48.812;9.232;2023-07-29T02:36:52;18.50;99.90
4461;DHT22;2243;48.812;9.232;2023-07-29T02:39:22;18.50;99.90
4461;DHT22;2243;48.812;9.232;2023-07-29T02:41:54;18.40;99.90
4461;DHT22;2243;48.812;9.232;2023-07-29T02:44:26;18.50;99.90
4461;DHT22;2243;48.812;9.232;2023-07-29T02:46:57;18.50;99.90
4461;DHT22;2243;48.812;9.232;2023-07-29T02:49:28;18.40;99.90
4461;DHT22;2243;48.812;9.232;2023-07-29T02:51:59;18.40;99.90
4461;DHT22;2243;48.812;9.232;2023-07-29T02:54:30;18.40;99.90
4461;DHT22;2243;48.812;9.232;2023-07-29T02:57:01;18.40;99.90
4461;DHT22;2243;48.812;9.232;2023-07-29T02:59:32;18.40;99.90
4461;DHT22;2243;48.812;9.232;2023-07-29T03:02:03;18.40;99.90
4461;DHT22;2243;48.812;9.232;2023-07-29T03:04:34;18.30;99.90
4461;DHT22;2243;48.812;9.232;2023-07-29T03:07:05;18.40;99.90
4461;DHT22;2243;48.812;9.232;2023-07-29T03:09:36;18.30;99.90
4461;DHT22;2243;48.812;9.232;2023-07-29T03:12:08;18.30;99.90
4461;DHT22;2243;48.812;9.232;2023-07-29T03:14:39;18.30;99.90
4461;DHT22;2243;48.812;9.232;2023-07-29T03:17:11;18.30;99.90
4461;DHT22;2243;48.812;9.232;2023-07-29T03:19:42;18.30;99.90
4461;DHT22;2243;48.812;9.232;2023-07-29T03:22:13;18.40;99.90
4461;DHT22;2243;48.812;9.232;2023-07-29T03:24:44;18.40;99.90
4461;DHT22;2243;48.812;9.232;2023-07-29T03:27:15;18.40;99.90
4461;DHT22;2243;48.812;9.232;2023-07-29T03:29:46;18.30;99.90
4461;DHT22;2243;48.812;9.232;2023-07-29T03:32:18;18.30;99.90
4461;DHT22;2243;48.812;9.232;2023-07-29T03:34:49;18.30;99.90
4461;DHT22;2243;48.812;9.232;2023-07-29T03:37:20;18.30;99.90
4461;DHT22;2243;48.812;9.232;2023-07-29T03:39:51;18.30;99.90
4461;DHT22;2243;48.812;9.232;2023-07-29T03:42:22;18.30;99.90
4461;DHT22;2243;48.812;9.232;2023-07-29T03:44:53;18.40;99.90
4461;DHT22;2243;48.812;9.232;2023-07-29T03:47:24;18.40;99.90
4461;DHT22;2243;48.812;9.232;2023-07-29T03:49:55;18.40;99.90
4461;DHT22;2243;48.812;9.232;2023-07-29T03:52:26;18.40;99.90
4461;DHT22;2243;48.812;9.232;2023-07-29T03:54:57;18.30;99.90
4461;DHT22;2243;48.812;9.232;2023-07-29T03:57:28;18.40;99.90
4461;DHT22;2243;48.812;9.232;2023-07-29T04:00:00;18.40;99.90
4461;DHT22;2243;48.812;9.232;2023-07-29T04:02:31;18.40;99.90
4461;DHT22;2243;48.812;9.232;2023-07-29T04:05:03;18.50;99.90
4461;DHT22;2243;48.812;9.232;2023-07-29T04:07:35;18.50;99.90
4461;DHT22;2243;48.812;9.232;2023-07-29T04:10:06;18.60;99.90
4461;DHT22;2243;48.812;9.232;2023-07-29T04:12:38;18.50;99.90
4461;DHT22;2243;48.812;9.232;2023-07-29T04:15:09;18.40;99.90
4461;DHT22;2243;48.812;9.232;2023-07-29T04:17:40;18.30;99.90
4461;DHT22;2243;48.812;9.232;2023-07-29T04:20:11;18.30;99.90
4461;DHT22;2243;48.812;9.232;2023-07-29T04:22:42;18.30;99.90
4461;DHT22;2243;48.812;9.232;2023-07-29T04:25:13;18.30;99.90
4461;DHT22;2243;48.812;9.232;2023-07-29T04:27:44;18.30;99.90
4461;DHT22;2243;48.812;9.232;2023-07-29T04:30:15;18.30;99.90
4461;DHT22;2243;48.812;9.232;2023-07-29T04:32:46;18.20;99.90
4461;DHT22;2243;48.812;9.232;2023-07-29T04:35:19;18.20;99.90
4461;DHT22;2243;48.812;9.232;2023-07-29T04:37:50;18.20;99.90
4461;DHT22;2243;48.812;9.232;2023-07-29T04:40:21;18.20;99.90
4461;DHT22;2243;48.812;9.232;2023-07-29T04:42:53;18.20;99.90
4461;DHT22;2243;48.812;9.232;2023-07-29T04:45:30;18.20;99.90
4461;DHT22;2243;48.812;9.232;2023-07-29T04:48:01;18.20;99.90
4461;DHT22;2243;48.812;9.232;2023-07-29T04:50:33;18.30;99.90
4461;DHT22;2243;48.812;9.232;2023-07-29T04:53:04;18.30;99.90
4461;DHT22;2243;48.812;9.232;2023-07-29T04:55:35;18.30;99.90
4461;DHT22;2243;48.812;9.232;2023-07-29T04:58:06;18.30;99.90
4461;DHT22;2243;48.812;9.232;2023-07-29T05:00:37;18.30;99.90
4461;DHT22;2243;48.812;9.232;2023-07-29T05:03:08;18.30;99.90
4461;DHT22;2243;48.812;9.232;2023-07-29T05:05:39;18.40;99.90
4461;DHT22;2243;48.812;9.232;2023-07-29T05:08:10;18.30;99.90
4461;DHT22;2243;48.812;9.232;2023-07-29T05:10:41;18.30;99.90
4461;DHT22;2243;48.812;9.232;2023-07-29T05:13:12;18.30;99.90
4461;DHT22;2243;48.812;9.232;2023-07-29T05:15:43;18.30;99.90
4461;DHT22;2243;48.812;9.232;2023-07-29T05:18:14;18.30;99.90
4461;DHT22;2243;48.812;9.232;2023-07-29T05:20:47;18.30;99.90
4461;DHT22;2243;48.812;9.232;2023-07-29T05:23:18;18.30;99.90
4461;DHT22;2243;48.812;9.232;2023-07-29T05:25:49;18.40;99.90
4461;DHT22;2243;48.812;9.232;2023-07-29T05:28:20;18.40;99.90
4461;DHT22;2243;48.812;9.232;2023-07-29T05:30:51;18.40;99.90
4461;DHT22;2243;48.812;9.232;2023-07-29T05:33:22;18.40;99.90
4461;DHT22;2243;48.812;9.232;2023-07-29T05:35:53;18.40;99.90
4461;DHT22;2243;48.812;9.232;2023-07-29T05:38:26;18.40;99.90
4461;DHT22;2243;48.812;9.232;2023-07-29T05:40:57;18.50;99.90
4461;DHT22;2243;48.812;9.232;2023-07-29T05:43:28;18.60;99.90
4461;DHT22;2243;48.812;9.232;2023-07-29T05:45:59;18.60;99.90
4461;DHT22;2243;48.812;9.232;2023-07-29T05:48:29;18.60;99.90
4461;DHT22;2243;48.812;9.232;2023-07-29T05:51:00;18.70;99.90
4461;DHT22;2243;48.812;9.232;2023-07-29T05:53:31;18.60;99.90
4461;DHT22;2243;48.812;9.232;2023-07-29T05:56:03;18.70;99.90
4461;DHT22;2243;48.812;9.232;2023-07-29T05:58:34;18.80;99.90
4461;DHT22;2243;48.812;9.232;2023-07-29T06:01:04;18.90;99.90
4461;DHT22;2243;48.812;9.232;2023-07-29T06:03:35;18.90;99.90
4461;DHT22;2243;48.812;9.232;2023-07-29T06:06:07;18.80;99.90
4461;DHT22;2243;48.812;9.232;2023-07-29T06:08:39;18.90;99.90
4461;DHT22;2243;48.812;9.232;2023-07-29T06:11:10;18.90;99.90
4461;DHT22;2243;48.812;9.232;2023-07-29T06:13:41;18.90;99.90
4461;DHT22;2243;48.812;9.232;2023-07-29T06:16:12;19.10;99.90
4461;DHT22;2243;48.812;9.232;2023-07-29T06:18:43;19.30;99.90
4461;DHT22;2243;48.812;9.232;2023-07-29T06:21:13;19.30;99.90
4461;DHT22;2243;48.812;9.232;2023-07-29T06:23:47;19.40;99.90
4461;DHT22;2243;48.812;9.232;2023-07-29T06:26:19;19.50;99.90
4461;DHT22;2243;48.812;9.232;2023-07-29T06:28:49;19.50;99.90
4461;DHT22;2243;48.812;9.232;2023-07-29T06:31:20;19.60;99.90
4461;DHT22;2243;48.812;9.232;2023-07-29T06:33:51;19.70;99.90
4461;DHT22;2243;48.812;9.232;2023-07-29T06:36:22;19.80;99.90
4461;DHT22;2243;48.812;9.232;2023-07-29T06:38:53;19.70;99.90
4461;DHT22;2243;48.812;9.232;2023-07-29T06:41:24;19.50;99.90
4461;DHT22;2243;48.812;9.232;2023-07-29T06:43:55;19.40;99.90
4461;DHT22;2243;48.812;9.232;2023-07-29T06:46:26;19.40;99.90
4461;DHT22;2243;48.812;9.232;2023-07-29T06:48:57;19.40;99.90
4461;DHT22;2243;48.812;9.232;2023-07-29T06:51:28;19.60;99.90
4461;DHT22;2243;48.812;9.232;2023-07-29T06:54:03;19.50;99.90
4461;DHT22;2243;48.812;9.232;2023-07-29T06:56:34;19.50;99.90
4461;DHT22;2243;48.812;9.232;2023-07-29T06:59:05;19.50;99.90
4461;DHT22;2243;48.812;9.232;2023-07-29T07:01:36;19.60;99.90
4461;DHT22;2243;48.812;9.232;2023-07-29T07:04:07;19.50;99.90
4461;DHT22;2243;48.812;9.232;2023-07-29T07:06:38;19.40;99.90
4461;DHT22;2243;48.812;9.232;2023-07-29T07:09:09;19.30;99.90
4461;DHT22;2243;48.812;9.232;2023-07-29T07:11:40;19.30;99.90
4461;DHT22;2243;48.812;9.232;2023-07-29T07:14:11;19.30;99.90
4461;DHT22;2243;48.812;9.232;2023-07-29T07:16:41;19.30;99.90
4461;DHT22;2243;48.812;9.232;2023-07-29T07:19:16;19.30;99.90
4461;DHT22;2243;48.812;9.232;2023-07-29T07:21:47;19.40;99.90
4461;DHT22;2243;48.812;9.232;2023-07-29T07:24:18;19.50;99.90
4461;DHT22;2243;48.812;9.232;2023-07-29T07:26:49;19.40;99.90
4461;DHT22;2243;48.812;9.232;2023-07-29T07:29:20;19.50;99.90
4461;DHT22;2243;48.812;9.232;2023-07-29T07:31:52;19.60;99.90
4461;DHT22;2243;48.812;9.232;2023-07-29T07:34:24;19.60;99.90
4461;DHT22;2243;48.812;9.232;2023-07-29T07:36:55;19.60;99.90
4461;DHT22;2243;48.812;9.232;2023-07-29T07:39:26;19.70;99.90
4461;DHT22;2243;48.812;9.232;2023-07-29T07:41:57;19.80;99.90
4461;DHT22;2243;48.812;9.232;2023-07-29T07:44:27;19.80;99.90
4461;DHT22;2243;48.812;9.232;2023-07-29T07:46:58;19.90;99.90
4461;DHT22;2243;48.812;9.232;2023-07-29T07:49:32;19.90;99.90
4461;DHT22;2243;48.812;9.232;2023-07-29T07:52:03;20.00;99.90
4461;DHT22;2243;48.812;9.232;2023-07-29T07:54:34;20.10;99.90
4461;DHT22;2243;48.812;9.232;2023-07-29T07:57:05;20.20;99.90
4461;DHT22;2243;48.812;9.232;2023-07-29T07:59:36;20.30;99.90
4461;DHT22;2243;48.812;9.232;2023-07-29T08:02:07;20.20;99.90
4461;DHT22;2243;48.812;9.232;2023-07-29T08:04:38;20.30;99.90
4461;DHT22;2243;48.812;9.232;2023-07-29T08:07:09;20.40;99.90
4461;DHT22;2243;48.812;9.232;2023-07-29T08:09:40;20.30;99.90
4461;DHT22;2243;48.812;9.232;2023-07-29T08:12:11;20.40;99.90
4461;DHT22;2243;48.812;9.232;2023-07-29T08:14:42;20.40;99.90
4461;DHT22;2243;48.812;9.232;2023-07-29T08:17:13;20.50;99.90
4461;DHT22;2243;48.812;9.232;2023-07-29T08:19:44;20.60;99.90
4461;DHT22;2243;48.812;9.232;2023-07-29T08:22:15;20.80;99.90
4461;DHT22;2243;48.812;9.232;2023-07-29T08:24:47;20.90;99.90
4461;DHT22;2243;48.812;9.232;2023-07-29T08:27:18;21.00;99.90
4461;DHT22;2243;48.812;9.232;2023-07-29T08:29:49;21.10;99.90
4461;DHT22;2243;48.812;9.232;2023-07-29T08:32:20;21.10;99.90
4461;DHT22;2243;48.812;9.232;2023-07-29T08:34:51;21.20;99.90
4461;DHT22;2243;48.812;9.232;2023-07-29T08:37:22;21.20;99.90
4461;DHT22;2243;48.812;9.232;2023-07-29T08:39:53;21.20;99.90
4461;DHT22;2243;48.812;9.232;2023-07-29T08:42:28;21.30;99.90
4461;DHT22;2243;48.812;9.232;2023-07-29T08:45:07;21.30;99.90
4461;DHT22;2243;48.812;9.232;2023-07-29T08:47:39;21.40;99.90
4461;DHT22;2243;48.812;9.232;2023-07-29T08:50:10;21.40;99.90
4461;DHT22;2243;48.812;9.232;2023-07-29T08:52:45;21.40;99.90
4461;DHT22;2243;48.812;9.232;2023-07-29T08:55:17;21.40;99.90
4461;DHT22;2243;48.812;9.232;2023-07-29T08:57:48;21.40;99.90
4461;DHT22;2243;48.812;9.232;2023-07-29T09:00:19;21.50;99.90
4461;DHT22;2243;48.812;9.232;2023-07-29T09:02:51;21.60;99.90
4461;DHT22;2243;48.812;9.232;2023-07-29T09:05:22;21.70;99.90
4461;DHT22;2243;48.812;9.232;2023-07-29T09:07:54;21.80;99.90
4461;DHT22;2243;48.812;9.232;2023-07-29T09:10:26;21.90;99.90
4461;DHT22;2243;48.812;9.232;2023-07-29T09:12:57;22.10;99.90
4461;DHT22;2243;48.812;9.232;2023-07-29T09:15:29;22.30;99.90
4461;DHT22;2243;48.812;9.232;2023-07-29T09:18:19;22.40;99.90
4461;DHT22;2243;48.812;9.232;2023-07-29T09:20:50;22.50;99.90
4461;DHT22;2243;48.812;9.232;2023-07-29T09:23:21;22.60;99.90
4461;DHT22;2243;48.812;9.232;2023-07-29T09:26:00;22.70;99.90
4461;DHT22;2243;48.812;9.232;2023-07-29T09:28:37;22.60;99.90
4461;DHT22;2243;48.812;9.232;2023-07-29T09:31:19;22.60;99.90
4461;DHT22;2243;48.812;9.232;2023-07-29T09:34:03;22.70;99.90
4461;DHT22;2243;48.812;9.232;2023-07-29T09:36:36;22.80;99.90
4461;DHT22;2243;48.812;9.232;2023-07-29T09:39:12;23.00;99.90
4461;DHT22;2243;48.812;9.232;2023-07-29T09:41:51;23.00;99.90
4461;DHT22;2243;48.812;9.232;2023-07-29T09:44:22;23.20;99.90
4461;DHT22;2243;48.812;9.232;2023-07-29T09:46:53;23.40;99.90
4461;DHT22;2243;48.812;9.232;2023-07-29T09:49:24;23.60;99.90
4461;DHT22;2243;48.812;9.232;2023-07-29T09:51:59;23.60;99.90
4461;DHT22;2243;48.812;9.232;2023-07-29T09:54:32;23.60;99.90
4461;DHT22;2243;48.812;9.232;2023-07-29T09:57:04;23.50;99.90
4461;DHT22;2243;48.812;9.232;2023-07-29T09:59:38;23.60;99.90
4461;DHT22;2243;48.812;9.232;2023-07-29T10:02:14;23.60;99.90
4461;DHT22;2243;48.812;9.232;2023-07-29T10:04:46;23.60;99.90
4461;DHT22;2243;48.812;9.232;2023-07-29T10:07:18;23.70;99.90
4461;DHT22;2243;48.812;9.232;2023-07-29T10:09:52;23.90;99.90
4461;DHT22;2243;48.812;9.232;2023-07-29T10:12:24;24.00;99.90
4461;DHT22;2243;48.812;9.232;2023-07-29T10:15:06;24.00;99.90
4461;DHT22;2243;48.812;9.232;2023-07-29T10:17:38;24.10;99.90
4461;DHT22;2243;48.812;9.232;2023-07-29T10:20:11;24.20;99.90
4461;DHT22;2243;48.812;9.232;2023-07-29T10:22:44;24.40;99.90
4461;DHT22;2243;48.812;9.232;2023-07-29T10:25:24;24.30;99.90
4461;DHT22;2243;48.812;9.232;2023-07-29T10:27:56;24.10;99.90
4461;DHT22;2243;48.812;9.232;2023-07-29T10:30:30;24.10;99.90
4461;DHT22;2243;48.812;9.232;2023-07-29T10:33:03;24.10;99.90
4461;DHT22;2243;48.812;9.232;2023-07-29T10:35:36;23.70;99.90
4461;DHT22;2243;48.812;9.232;2023-07-29T10:38:08;23.50;99.90
4461;DHT22;2243;48.812;9.232;2023-07-29T10:40:53;23.20;99.90
4461;DHT22;2243;48.812;9.232;2023-07-29T10:43:33;23.00;99.90
4461;DHT22;2243;48.812;9.232;2023-07-29T10:46:20;22.80;99.90
4461;DHT22;2243;48.812;9.232;2023-07-29T10:48:56;22.60;99.90
4461;DHT22;2243;48.812;9.232;2023-07-29T10:51:34;22.60;99.90
4461;DHT22;2243;48.812;9.232;2023-07-29T10:54:11;22.70;99.90
4461;DHT22;2243;48.812;9.232;2023-07-29T10:56:49;22.80;99.90
4461;DHT22;2243;48.812;9.232;2023-07-29T11:01:54;22.90;99.90
4461;DHT22;2243;48.812;9.232;2023-07-29T11:04:29;23.10;99.90
4461;DHT22;2243;48.812;9.232;2023-07-29T11:09:45;23.50;99.90
4461;DHT22;2243;48.812;9.232;2023-07-29T11:15:15;23.70;99.90
4461;DHT22;2243;48.812;9.232;2023-07-29T11:17:47;23.90;99.90
4461;DHT22;2243;48.812;9.232;2023-07-29T11:20:32;24.00;99.90
4461;DHT22;2243;48.812;9.232;2023-07-29T11:23:04;24.10;99.90
4461;DHT22;2243;48.812;9.232;2023-07-29T11:25:36;24.20;99.90
4461;DHT22;2243;48.812;9.232;2023-07-29T11:28:08;24.40;99.90
4461;DHT22;2243;48.812;9.232;2023-07-29T11:30:39;24.50;99.90
4461;DHT22;2243;48.812;9.232;2023-07-29T11:33:10;24.40;99.90
4461;DHT22;2243;48.812;9.232;2023-07-29T11:35:42;24.50;99.90
4461;DHT22;2243;48.812;9.232;2023-07-29T11:38:18;24.50;99.90
4461;DHT22;2243;48.812;9.232;2023-07-29T11:40:58;24.40;99.90
4461;DHT22;2243;48.812;9.232;2023-07-29T11:43:35;24.50;99.90
4461;DHT22;2243;48.812;9.232;2023-07-29T11:46:06;24.60;99.90
4461;DHT22;2243;48.812;9.232;2023-07-29T11:48:38;24.60;99.90
4461;DHT22;2243;48.812;9.232;2023-07-29T11:51:09;24.50;99.90
4461;DHT22;2243;48.812;9.232;2023-07-29T11:53:42;24.80;99.90
4461;DHT22;2243;48.812;9.232;2023-07-29T11:56:13;25.00;99.90
4461;DHT22;2243;48.812;9.232;2023-07-29T11:58:44;25.10;99.90
4461;DHT22;2243;48.812;9.232;2023-07-29T12:01:15;25.20;99.90
4461;DHT22;2243;48.812;9.232;2023-07-29T12:03:46;25.20;99.90
4461;DHT22;2243;48.812;9.232;2023-07-29T12:06:17;25.50;99.90
4461;DHT22;2243;48.812;9.232;2023-07-29T12:08:49;25.80;99.90
4461;DHT22;2243;48.812;9.232;2023-07-29T12:11:23;26.00;99.90
4461;DHT22;2243;48.812;9.232;2023-07-29T12:13:54;26.00;99.90
4461;DHT22;2243;48.812;9.232;2023-07-29T12:16:25;26.10;99.90
4461;DHT22;2243;48.812;9.232;2023-07-29T12:19:00;26.10;99.90
4461;DHT22;2243;48.812;9.232;2023-07-29T12:21:31;26.20;99.90
4461;DHT22;2243;48.812;9.232;2023-07-29T12:24:02;26.40;99.90
4461;DHT22;2243;48.812;9.232;2023-07-29T12:26:36;26.50;99.90
4461;DHT22;2243;48.812;9.232;2023-07-29T12:29:26;26.50;99.90
4461;DHT22;2243;48.812;9.232;2023-07-29T12:31:59;26.40;99.90
4461;DHT22;2243;48.812;9.232;2023-07-29T12:34:32;26.40;99.90
4461;DHT22;2243;48.812;9.232;2023-07-29T12:37:03;26.50;99.90
4461;DHT22;2243;48.812;9.232;2023-07-29T12:39:40;26.70;99.90
4461;DHT22;2243;48.812;9.232;2023-07-29T12:42:14;26.90;99.90
4461;DHT22;2243;48.812;9.232;2023-07-29T12:44:46;26.80;99.90
4461;DHT22;2243;48.812;9.232;2023-07-29T12:47:17;26.80;99.20
4461;DHT22;2243;48.812;9.232;2023-07-29T12:49:48;26.70;98.00
4461;DHT22;2243;48.812;9.232;2023-07-29T12:52:19;26.80;97.30
4461;DHT22;2243;48.812;9.232;2023-07-29T12:54:50;26.90;95.90
4461;DHT22;2243;48.812;9.232;2023-07-29T12:57:21;27.00;95.90
4461;DHT22;2243;48.812;9.232;2023-07-29T12:59:52;27.00;95.70
4461;DHT22;2243;48.812;9.232;2023-07-29T13:02:23;27.10;95.80
4461;DHT22;2243;48.812;9.232;2023-07-29T13:04:54;27.10;95.30
4461;DHT22;2243;48.812;9.232;2023-07-29T13:07:25;27.10;95.60
4461;DHT22;2243;48.812;9.232;2023-07-29T13:09:56;27.20;95.10
4461;DHT22;2243;48.812;9.232;2023-07-29T13:12:27;27.20;95.20
4461;DHT22;2243;48.812;9.232;2023-07-29T13:14:58;27.20;95.10
4461;DHT22;2243;48.812;9.232;2023-07-29T13:17:29;27.30;95.00
4461;DHT22;2243;48.812;9.232;2023-07-29T13:20:00;27.40;95.50
4461;DHT22;2243;48.812;9.232;2023-07-29T13:22:33;27.70;95.60
4461;DHT22;2243;48.812;9.232;2023-07-29T13:25:04;27.90;95.00
4461;DHT22;2243;48.812;9.232;2023-07-29T13:27:35;28.10;95.10
4461;DHT22;2243;48.812;9.232;2023-07-29T13:30:06;28.00;94.20
4461;DHT22;2243;48.812;9.232;2023-07-29T13:32:38;27.70;94.20
4461;DHT22;2243;48.812;9.232;2023-07-29T13:35:09;27.50;94.70
4461;DHT22;2243;48.812;9.232;2023-07-29T13:37:40;27.30;94.60
4461;DHT22;2243;48.812;9.232;2023-07-29T13:40:11;27.30;94.80
4461;DHT22;2243;48.812;9.232;2023-07-29T13:42:42;27.00;95.10
4461;DHT22;2243;48.812;9.232;2023-07-29T13:45:13;26.90;95.30
4461;DHT22;2243;48.812;9.232;2023-07-29T13:47:44;26.90;95.40
4461;DHT22;2243;48.812;9.232;2023-07-29T13:50:15;26.80;95.60
4461;DHT22;2243;48.812;9.232;2023-07-29T13:52:47;26.70;95.40
4461;DHT22;2243;48.812;9.232;2023-07-29T13:55:18;26.70;95.60
4461;DHT22;2243;48.812;9.232;2023-07-29T13:57:50;26.80;95.70
4461;DHT22;2243;48.812;9.232;2023-07-29T14:00:22;26.80;95.50
4461;DHT22;2243;48.812;9.232;2023-07-29T14:02:54;26.70;95.50
4461;DHT22;2243;48.812;9.232;2023-07-29T14:05:25;26.70;95.60
4461;DHT22;2243;48.812;9.232;2023-07-29T14:07:56;26.80;95.50
4461;DHT22;2243;48.812;9.232;2023-07-29T14:10:27;26.70;95.60
4461;DHT22;2243;48.812;9.232;2023-07-29T14:12:58;26.80;95.50
4461;DHT22;2243;48.812;9.232;2023-07-29T14:15:28;26.90;95.40
4461;DHT22;2243;48.812;9.232;2023-07-29T14:17:59;26.90;94.90
4461;DHT22;2243;48.812;9.232;2023-07-29T14:20:31;26.90;95.10
4461;DHT22;2243;48.812;9.232;2023-07-29T14:23:02;26.90;95.10
4461;DHT22;2243;48.812;9.232;2023-07-29T14:25:32;26.90;95.10
4461;DHT22;2243;48.812;9.232;2023-07-29T14:28:03;27.00;95.20
4461;DHT22;2243;48.812;9.232;2023-07-29T14:30:34;27.10;94.90
4461;DHT22;2243;48.812;9.232;2023-07-29T14:33:06;27.00;95.40
4461;DHT22;2243;48.812;9.232;2023-07-29T14:35:37;27.20;95.30
4461;DHT22;2243;48.812;9.232;2023-07-29T14:38:08;27.20;95.30
4461;DHT22;2243;48.812;9.232;2023-07-29T14:40:39;27.20;95.60
4461;DHT22;2243;48.812;9.232;2023-07-29T14:43:10;27.20;95.40
4461;DHT22;2243;48.812;9.232;2023-07-29T14:45:41;27.20;95.30
4461;DHT22;2243;48.812;9.232;2023-07-29T14:48:12;27.10;95.40
4461;DHT22;2243;48.812;9.232;2023-07-29T14:50:43;26.90;95.40
4461;DHT22;2243;48.812;9.232;2023-07-29T14:53:14;26.80;96.00
4461;DHT22;2243;48.812;9.232;2023-07-29T14:55:45;26.80;95.90
4461;DHT22;2243;48.812;9.232;2023-07-29T14:58:16;26.70;96.00
4461;DHT22;2243;48.812;9.232;2023-07-29T15:00:47;26.60;96.40
4461;DHT22;2243;48.812;9.232;2023-07-29T15:03:18;26.60;95.90
4461;DHT22;2243;48.812;9.232;2023-07-29T15:05:50;26.40;96.10
4461;DHT22;2243;48.812;9.232;2023-07-29T15:08:21;26.40;96.60
4461;DHT22;2243;48.812;9.232;2023-07-29T15:10:52;26.40;96.60
4461;DHT22;2243;48.812;9.232;2023-07-29T15:13:24;26.40;96.50
4461;DHT22;2243;48.812;9.232;2023-07-29T15:15:55;26.30;96.50
4461;DHT22;2243;48.812;9.232;2023-07-29T15:18:26;26.30;96.50
4461;DHT22;2243;48.812;9.232;2023-07-29T15:21:00;26.40;96.60
4461;DHT22;2243;48.812;9.232;2023-07-29T15:23:32;26.50;96.60
4461;DHT22;2243;48.812;9.232;2023-07-29T15:26:03;26.40;96.60
4461;DHT22;2243;48.812;9.232;2023-07-29T15:28:35;26.50;96.90
4461;DHT22;2243;48.812;9.232;2023-07-29T15:31:06;26.50;96.90
4461;DHT22;2243;48.812;9.232;2023-07-29T15:33:37;26.50;96.60
4461;DHT22;2243;48.812;9.232;2023-07-29T15:36:08;26.60;96.60
4461;DHT22;2243;48.812;9.232;2023-07-29T15:38:39;26.60;96.50
4461;DHT22;2243;48.812;9.232;2023-07-29T15:41:10;26.70;96.50
4461;DHT22;2243;48.812;9.232;2023-07-29T15:43:41;26.90;96.40
4461;DHT22;2243;48.812;9.232;2023-07-29T15:46:12;27.10;96.00
4461;DHT22;2243;48.812;9.232;2023-07-29T15:48:43;27.40;95.70
4461;DHT22;2243;48.812;9.232;2023-07-29T15:51:14;27.50;95.60
4461;DHT22;2243;48.812;9.232;2023-07-29T15:53:45;27.40;95.60
4461;DHT22;2243;48.812;9.232;2023-07-29T15:56:16;27.40;96.00
4461;DHT22;2243;48.812;9.232;2023-07-29T15:58:47;27.30;95.90
4461;DHT22;2243;48.812;9.232;2023-07-29T16:01:18;27.40;95.80
4461;DHT22;2243;48.812;9.232;2023-07-29T16:03:49;27.20;96.00
4461;DHT22;2243;48.812;9.232;2023-07-29T16:06:20;27.30;96.00
4461;DHT22;2243;48.812;9.232;2023-07-29T16:08:52;27.10;96.10
4461;DHT22;2243;48.812;9.232;2023-07-29T16:11:24;27.00;96.40
4461;DHT22;2243;48.812;9.232;2023-07-29T16:13:55;26.90;96.60
4461;DHT22;2243;48.812;9.232;2023-07-29T16:16:27;27.00;96.60
4461;DHT22;2243;48.812;9.232;2023-07-29T16:18:58;26.90;96.60
4461;DHT22;2243;48.812;9.232;2023-07-29T16:21:29;26.90;96.30
4461;DHT22;2243;48.812;9.232;2023-07-29T16:24:00;27.00;96.20
4461;DHT22;2243;48.812;9.232;2023-07-29T16:26:31;26.90;96.00
4461;DHT22;2243;48.812;9.232;2023-07-29T16:29:02;27.10;96.00
4461;DHT22;2243;48.812;9.232;2023-07-29T16:31:35;27.10;95.70
4461;DHT22;2243;48.812;9.232;2023-07-29T16:34:06;27.00;95.80
4461;DHT22;2243;48.812;9.232;2023-07-29T16:36:37;27.00;95.80
4461;DHT22;2243;48.812;9.232;2023-07-29T16:39:08;27.00;96.00
4461;DHT22;2243;48.812;9.232;2023-07-29T16:41:39;26.90;96.00
4461;DHT22;2243;48.812;9.232;2023-07-29T16:44:30;26.90;96.00